Back to Top

Language: 

My Weather Underground Personal Weather Station Historical Data with Graphs...

Delerius Weather Station Historical Data
Daily Summary for November 10, 2017 Units:  Metric    English   Both
« Previous Day
Next Day »
Daily Weekly Monthly Yearly Custom
  High: Low: Average:
Temperature: 10.4 °C 6.3 °C 8.2 °C
Dew Point: 8.7 °C 3.3 °C 5.3 °C
Humidity: 92 % 70 % 83 %
Wind Speed: 30.6 km/h 1.6 km/h 15.8 km/h
Wind Gust: 49.9 km/h - -
Wind:- - West
Pressure: 1018.2 hPa 1013.1 hPa -
Precipitation: 0.76 mm    
Historical Graphs
 
 
Tabular Data for November 10, 2017
Time Temperature Dew Point Pressure Wind Wind Speed Wind Gust Humidity Rainfall Rate (Hourly) solar Conditions
00:03 8.8 °C 5.7 °C 1017.2 hPa West 16.1 km/h 24.1 km/h 81 % 0 mm 0 W/m2
00:08 8.8 °C 5.7 °C 1016.8 hPa WSW 17.7 km/h 25.7 km/h 81 % 0 mm 0 W/m2
00:13 8.9 °C 5.8 °C 1016.8 hPa West 16.1 km/h 29 km/h 81 % 0 mm 0 W/m2
00:18 8.9 °C 5.8 °C 1016.8 hPa WSW 17.7 km/h 25.7 km/h 81 % 0 mm 0 W/m2
00:23 9 °C 5.9 °C 1016.8 hPa West 14.5 km/h 22.5 km/h 81 % 0 mm 0 W/m2
00:28 9 °C 5.9 °C 1016.8 hPa WSW 16.1 km/h 25.7 km/h 81 % 0 mm 0 W/m2
00:33 9 °C 5.7 °C 1016.5 hPa WSW 19.3 km/h 25.7 km/h 80 % 0 mm 0 W/m2
00:38 9 °C 5.6 °C 1016.5 hPa West 17.7 km/h 24.1 km/h 79 % 0 mm 0 W/m2
00:43 8.9 °C 5.4 °C 1016.5 hPa West 12.9 km/h 19.3 km/h 79 % 0 mm 0 W/m2
00:48 8.9 °C 5.4 °C 1016.5 hPa West 16.1 km/h 24.1 km/h 79 % 0 mm 0 W/m2
00:53 8.8 °C 5.3 °C 1016.5 hPa West 16.1 km/h 30.6 km/h 79 % 0 mm 0 W/m2
00:58 8.8 °C 5.3 °C 1016.1 hPa West 12.9 km/h 25.7 km/h 79 % 0 mm 0 W/m2
01:03 8.8 °C 5.3 °C 1016.1 hPa West 14.5 km/h 20.9 km/h 79 % 0 mm 0 W/m2
01:08 8.8 °C 5.3 °C 1015.8 hPa WSW 14.5 km/h 20.9 km/h 79 % 0 mm 0 W/m2
01:13 8.8 °C 5.3 °C 1015.8 hPa WSW 12.9 km/h 22.5 km/h 79 % 0 mm 0 W/m2
01:18 8.8 °C 5.3 °C 1015.8 hPa WSW 9.7 km/h 17.7 km/h 79 % 0 mm 0 W/m2
01:23 8.8 °C 5.3 °C 1015.8 hPa WSW 9.7 km/h 20.9 km/h 79 % 0 mm 0 W/m2
01:28 8.9 °C 5.4 °C 1015.8 hPa WSW 8 km/h 14.5 km/h 79 % 0 mm 0 W/m2
01:33 8.9 °C 5.4 °C 1015.8 hPa WSW 9.7 km/h 14.5 km/h 79 % 0 mm 0 W/m2
01:38 9 °C 5.4 °C 1015.5 hPa WSW 12.9 km/h 17.7 km/h 78 % 0 mm 0 W/m2
01:43 9 °C 5.4 °C 1015.5 hPa SW 9.7 km/h 14.5 km/h 78 % 0 mm 0 W/m2
01:48 9 °C 5.4 °C 1015.5 hPa WSW 8 km/h 16.1 km/h 78 % 0 mm 0 W/m2
01:53 9 °C 5.4 °C 1015.5 hPa WSW 9.7 km/h 16.1 km/h 78 % 0 mm 0 W/m2
01:58 9 °C 5.6 °C 1015.1 hPa WSW 12.9 km/h 19.3 km/h 79 % 0 mm 0 W/m2
02:03 9.1 °C 5.4 °C 1015.1 hPa SW 9.7 km/h 16.1 km/h 78 % 0 mm 0 W/m2
02:08 9.1 °C 5.4 °C 1015.1 hPa WSW 12.9 km/h 19.3 km/h 78 % 0 mm 0 W/m2
02:13 9.2 °C 5.7 °C 1015.1 hPa SW 16.1 km/h 24.1 km/h 79 % 0 mm 0 W/m2
02:18 9.2 °C 5.9 °C 1014.8 hPa SW 11.3 km/h 16.1 km/h 80 % 0 mm 0 W/m2
02:23 9.1 °C 6 °C 1014.8 hPa SW 9.7 km/h 12.9 km/h 81 % 0 mm 0 W/m2
02:28 9.1 °C 6 °C 1014.8 hPa SW 8 km/h 14.5 km/h 81 % 0 mm 0 W/m2
02:33 8.9 °C 6.2 °C 1014.4 hPa SSW 11.3 km/h 17.7 km/h 83 % 0 mm 0 W/m2
02:38 8.8 °C 6.4 °C 1014.4 hPa SSW 8 km/h 14.5 km/h 85 % 0 mm 0 W/m2
02:43 8.6 °C 6.4 °C 1014.4 hPa SW 11.3 km/h 14.5 km/h 86 % 0 mm 0 W/m2
02:48 8.5 °C 6.4 °C 1014.1 hPa SW 4.8 km/h 9.7 km/h 87 % 0 mm 0 W/m2
02:53 8.4 °C 6.5 °C 1014.1 hPa SW 6.4 km/h 12.9 km/h 88 % 0 mm 0 W/m2
02:59 8.3 °C 6.4 °C 1013.8 hPa SSW 4.8 km/h 8 km/h 88 % 0 mm 0 W/m2
03:04 8.3 °C 6.6 °C 1013.8 hPa SW 6.4 km/h 12.9 km/h 89 % 0 mm 0 W/m2
03:09 8.2 °C 6.7 °C 1013.8 hPa SSW 4.8 km/h 11.3 km/h 90 % 0 mm 0 W/m2
03:14 8.2 °C 6.7 °C 1013.8 hPa SW 8 km/h 12.9 km/h 90 % 0 mm 0 W/m2
03:19 8.2 °C 6.8 °C 1013.4 hPa SSW 4.8 km/h 9.7 km/h 91 % 0 mm 0 W/m2
03:24 8.2 °C 6.8 °C 1013.4 hPa SSW 3.2 km/h 11.3 km/h 91 % 0 mm 0 W/m2
03:29 8.2 °C 6.8 °C 1013.4 hPa SW 6.4 km/h 12.9 km/h 91 % 0 mm 0 W/m2
03:34 8.2 °C 6.8 °C 1013.4 hPa SW 3.2 km/h 9.7 km/h 91 % 0 mm 0 W/m2
03:39 8.3 °C 7.1 °C 1013.4 hPa WSW 6.4 km/h 12.9 km/h 92 % 0 mm 0 W/m2
03:44 8.5 °C 7.3 °C 1013.1 hPa WSW 9.7 km/h 20.9 km/h 92 % 0 mm 0 W/m2
03:49 8.8 °C 7.6 °C 1013.1 hPa West 11.3 km/h 16.1 km/h 92 % 0 mm 0 W/m2
03:54 9.1 °C 7.9 °C 1013.1 hPa WSW 14.5 km/h 29 km/h 92 % 0 mm 0 W/m2
03:59 9.2 °C 7.8 °C 1013.1 hPa West 12.9 km/h 24.1 km/h 91 % 0 mm 0 W/m2
04:04 9.3 °C 7.9 °C 1013.1 hPa West 11.3 km/h 14.5 km/h 91 % 0 mm 0 W/m2
04:09 9.3 °C 7.9 °C 1013.1 hPa West 9.7 km/h 12.9 km/h 91 % 0 mm 0 W/m2
04:14 9.4 °C 8 °C 1013.1 hPa West 8 km/h 12.9 km/h 91 % 0 mm 0 W/m2
04:19 9.5 °C 8.1 °C 1013.1 hPa West 12.9 km/h 22.5 km/h 91 % 0 mm 0 W/m2
04:24 9.8 °C 8.4 °C 1013.1 hPa WNW 17.7 km/h 29 km/h 91 % 0 mm 0 W/m2
04:29 9.9 °C 8.5 °C 1013.1 hPa WNW 9.7 km/h 16.1 km/h 91 % 0 mm 0 W/m2
04:34 10 °C 8.6 °C 1013.1 hPa WNW 14.5 km/h 20.9 km/h 91 % 0 mm 0 W/m2
04:39 10.1 °C 8.7 °C 1013.1 hPa WNW 12.9 km/h 25.7 km/h 91 % 0 mm 0 W/m2
04:44 10.2 °C 8.6 °C 1013.1 hPa WNW 16.1 km/h 25.7 km/h 90 % 0 mm 0 W/m2
04:49 10.2 °C 8.6 °C 1013.1 hPa WNW 17.7 km/h 32.2 km/h 90 % 0 mm 0 W/m2
04:54 10.2 °C 8.3 °C 1013.1 hPa WNW 24.1 km/h 43.5 km/h 88 % 0 mm 0 W/m2
04:56 10.3 °C 8.4 °C 1013.1 hPa WNW 22.5 km/h 37 km/h 88 % 0 mm 0 W/m2
05:01 10.4 °C 8.2 °C 1013.1 hPa WNW 24.1 km/h 43.5 km/h 86 % 0 mm 0 W/m2
05:06 10.4 °C 8.2 °C 1013.4 hPa WNW 19.3 km/h 29 km/h 86 % 0 mm 0 W/m2
05:11 10.3 °C 7.9 °C 1013.4 hPa NW 19.3 km/h 37 km/h 85 % 0 mm 0 W/m2
05:16 10.3 °C 7.7 °C 1013.1 hPa WNW 17.7 km/h 32.2 km/h 84 % 0 mm 0 W/m2
05:21 10.2 °C 7.6 °C 1013.4 hPa WNW 22.5 km/h 33.8 km/h 84 % 0 mm 0 W/m2
05:22 10.2 °C 7.6 °C 1013.4 hPa WNW 22.5 km/h 35.4 km/h 84 % 0 mm 0 W/m2
05:27 10.2 °C 7.6 °C 1013.4 hPa NW 14.5 km/h 29 km/h 84 % 0 mm 0 W/m2
05:32 10.1 °C 7.5 °C 1013.4 hPa WNW 20.9 km/h 35.4 km/h 84 % 0 mm 0 W/m2
05:37 10 °C 7.4 °C 1013.4 hPa WNW 19.3 km/h 38.6 km/h 84 % 0 mm 0 W/m2
05:42 9.9 °C 7.2 °C 1013.4 hPa NW 16.1 km/h 25.7 km/h 83 % 0 mm 0 W/m2
05:47 9.9 °C 7.2 °C 1013.8 hPa WNW 19.3 km/h 35.4 km/h 83 % 0 mm 0 W/m2
05:52 9.8 °C 6.9 °C 1013.8 hPa WNW 20.9 km/h 33.8 km/h 82 % 0 mm 0 W/m2
05:57 9.7 °C 6.6 °C 1013.8 hPa WNW 20.9 km/h 33.8 km/h 81 % 0 mm 0 W/m2
06:02 9.6 °C 6.5 °C 1014.1 hPa WNW 16.1 km/h 25.7 km/h 81 % 0 mm 0 W/m2
06:07 9.6 °C 6.3 °C 1014.1 hPa WNW 19.3 km/h 37 km/h 80 % 0 mm 0 W/m2
06:12 9.6 °C 6.3 °C 1014.1 hPa NW 20.9 km/h 37 km/h 80 % 0 mm 0 W/m2
06:17 9.6 °C 6.3 °C 1014.1 hPa WNW 20.9 km/h 35.4 km/h 80 % 0 mm 0 W/m2
06:22 9.5 °C 6.4 °C 1014.1 hPa NW 19.3 km/h 32.2 km/h 81 % 0 mm 0 W/m2
06:28 9.6 °C 6.5 °C 1014.4 hPa WNW 20.9 km/h 38.6 km/h 81 % 0 mm 0 W/m2
06:33 9.4 °C 6.3 °C 1014.4 hPa WNW 20.9 km/h 38.6 km/h 81 % 0 mm 0 W/m2
06:38 9.2 °C 6.3 °C 1014.4 hPa WNW 22.5 km/h 37 km/h 82 % 0 mm 0 W/m2
06:43 9 °C 6.1 °C 1014.1 hPa WNW 27.4 km/h 40.2 km/h 82 % 0 mm 0 W/m2
06:48 8.9 °C 6 °C 1014.4 hPa WNW 22.5 km/h 33.8 km/h 82 % 0 mm 0 W/m2
06:53 8.8 °C 5.7 °C 1014.1 hPa WNW 25.7 km/h 45.1 km/h 81 % 0 mm 0 W/m2
06:58 8.7 °C 5.6 °C 1014.4 hPa WNW 29 km/h 48.3 km/h 81 % 0 mm 0 W/m2
07:03 8.7 °C 5.6 °C 1014.4 hPa WNW 30.6 km/h 48.3 km/h 81 % 0 mm 0 W/m2
07:08 8.6 °C 5.5 °C 1014.4 hPa WNW 30.6 km/h 45.1 km/h 81 % 0 mm 7 W/m2
07:13 8.6 °C 5.5 °C 1014.4 hPa WNW 25.7 km/h 43.5 km/h 81 % 0 mm 11 W/m2
07:18 8.4 °C 5.2 °C 1014.4 hPa WNW 27.4 km/h 43.5 km/h 80 % 0 mm 11 W/m2
07:23 8.4 °C 5.2 °C 1014.4 hPa WNW 25.7 km/h 46.7 km/h 80 % 0 mm 9 W/m2
07:28 8.4 °C 4.9 °C 1014.8 hPa WNW 24.1 km/h 43.5 km/h 79 % 0 mm 9 W/m2
07:33 8.3 °C 4.7 °C 1014.8 hPa NW 27.4 km/h 49.9 km/h 78 % 0 mm 12 W/m2
07:38 8.3 °C 4.7 °C 1014.8 hPa WNW 22.5 km/h 38.6 km/h 78 % 0 mm 16 W/m2
07:43 8.3 °C 4.7 °C 1014.8 hPa WNW 25.7 km/h 46.7 km/h 78 % 0 mm 21 W/m2
07:48 8.3 °C 4.7 °C 1015.1 hPa WNW 22.5 km/h 38.6 km/h 78 % 0 mm 18 W/m2
07:53 8.2 °C 4.6 °C 1015.1 hPa NW 16.1 km/h 33.8 km/h 78 % 0 mm 21 W/m2
07:58 8.2 °C 4.6 °C 1015.5 hPa NW 20.9 km/h 38.6 km/h 78 % 0 mm 26 W/m2
08:03 8.2 °C 4.4 °C 1015.5 hPa WNW 20.9 km/h 35.4 km/h 77 % 0 mm 28 W/m2
08:08 8.2 °C 4.4 °C 1015.5 hPa NW 17.7 km/h 32.2 km/h 77 % 0 mm 33 W/m2
08:13 8.2 °C 4.4 °C 1015.8 hPa NW 19.3 km/h 33.8 km/h 77 % 0 mm 39 W/m2
08:18 8.2 °C 4.4 °C 1015.8 hPa WNW 19.3 km/h 32.2 km/h 77 % 0 mm 42 W/m2
08:23 8.2 °C 4.2 °C 1015.8 hPa NW 25.7 km/h 38.6 km/h 76 % 0 mm 49 W/m2
08:28 8.2 °C 4.2 °C 1015.8 hPa WNW 20.9 km/h 33.8 km/h 76 % 0 mm 54 W/m2
08:33 8.2 °C 4.4 °C 1015.8 hPa WNW 19.3 km/h 38.6 km/h 77 % 0 mm 60 W/m2
08:38 8.2 °C 4.4 °C 1015.8 hPa WNW 20.9 km/h 35.4 km/h 77 % 0 mm 58 W/m2
08:43 8.2 °C 4.2 °C 1015.8 hPa WNW 24.1 km/h 43.5 km/h 76 % 0 mm 67 W/m2
08:48 8.2 °C 4.1 °C 1015.8 hPa WNW 24.1 km/h 41.8 km/h 75 % 0 mm 70 W/m2
08:53 8.2 °C 4.1 °C 1015.8 hPa WNW 20.9 km/h 33.8 km/h 75 % 0 mm 72 W/m2
08:58 8.2 °C 3.8 °C 1015.8 hPa WNW 19.3 km/h 32.2 km/h 74 % 0 mm 79 W/m2
09:03 8.2 °C 3.4 °C 1016.1 hPa WNW 20.9 km/h 35.4 km/h 72 % 0 mm 86 W/m2
09:08 8.2 °C 3.4 °C 1016.1 hPa NW 25.7 km/h 41.8 km/h 72 % 0 mm 91 W/m2
09:13 8.3 °C 3.3 °C 1016.1 hPa WNW 25.7 km/h 45.1 km/h 71 % 0 mm 104 W/m2
09:18 8.3 °C 3.3 °C 1016.5 hPa WNW 22.5 km/h 35.4 km/h 71 % 0 mm 163 W/m2
09:23 8.4 °C 3.4 °C 1016.5 hPa WNW 17.7 km/h 33.8 km/h 71 % 0 mm 137 W/m2
09:29 8.4 °C 3.4 °C 1016.5 hPa WNW 20.9 km/h 45.1 km/h 71 % 0 mm 167 W/m2
09:34 8.6 °C 3.6 °C 1016.8 hPa WNW 16.1 km/h 35.4 km/h 71 % 0 mm 163 W/m2
09:39 8.6 °C 3.6 °C 1016.8 hPa NW 16.1 km/h 33.8 km/h 71 % 0 mm 258 W/m2
09:44 8.7 °C 3.6 °C 1016.8 hPa WNW 16.1 km/h 29 km/h 70 % 0 mm 241 W/m2
09:49 8.8 °C 3.8 °C 1017.2 hPa NW 17.7 km/h 30.6 km/h 71 % 0 mm 227 W/m2
09:54 8.9 °C 3.7 °C 1017.2 hPa WNW 24.1 km/h 38.6 km/h 70 % 0 mm 100 W/m2
09:59 8.8 °C 3.8 °C 1017.2 hPa NW 12.9 km/h 24.1 km/h 71 % 0 mm 116 W/m2
10:04 8.8 °C 4 °C 1017.5 hPa WNW 19.3 km/h 32.2 km/h 72 % 0 mm 287 W/m2
10:09 8.8 °C 4 °C 1017.5 hPa WNW 27.4 km/h 41.8 km/h 72 % 0 mm 176 W/m2
10:14 8.8 °C 4 °C 1017.5 hPa WNW 22.5 km/h 33.8 km/h 72 % 0 mm 153 W/m2
10:19 8.7 °C 4.1 °C 1017.5 hPa WNW 17.7 km/h 25.7 km/h 73 % 0 mm 176 W/m2
10:20 8.7 °C 4.1 °C 1017.5 hPa WNW 17.7 km/h 29 km/h 73 % 0 mm 176 W/m2
10:25 8.7 °C 4.3 °C 1017.5 hPa WNW 19.3 km/h 30.6 km/h 74 % 0 mm 320 W/m2
10:30 8.8 °C 4.4 °C 1017.5 hPa WNW 16.1 km/h 24.1 km/h 74 % 0 mm 327 W/m2
10:35 9 °C 4.6 °C 1017.5 hPa WNW 19.3 km/h 29 km/h 74 % 0 mm 323 W/m2
10:40 9.2 °C 4.8 °C 1017.5 hPa WNW 11.3 km/h 22.5 km/h 74 % 0 mm 323 W/m2
10:45 9.4 °C 4.8 °C 1017.5 hPa WNW 17.7 km/h 32.2 km/h 73 % 0 mm 297 W/m2
10:50 9.4 °C 4.8 °C 1017.5 hPa WNW 17.7 km/h 30.6 km/h 73 % 0 mm 346 W/m2
10:55 9.6 °C 5 °C 1017.5 hPa WNW 19.3 km/h 33.8 km/h 73 % 0 mm 353 W/m2
11:00 9.6 °C 5 °C 1017.5 hPa WNW 22.5 km/h 35.4 km/h 73 % 0 mm 345 W/m2
11:05 9.7 °C 5.1 °C 1017.5 hPa WNW 19.3 km/h 35.4 km/h 73 % 0 mm 197 W/m2
11:10 9.6 °C 4.8 °C 1017.5 hPa WNW 24.1 km/h 40.2 km/h 72 % 0 mm 381 W/m2
11:15 9.6 °C 4.8 °C 1017.5 hPa WNW 19.3 km/h 35.4 km/h 72 % 0 mm 387 W/m2
11:20 9.8 °C 5 °C 1017.2 hPa WNW 19.3 km/h 32.2 km/h 72 % 0 mm 364 W/m2
11:25 9.9 °C 4.9 °C 1017.2 hPa WNW 25.7 km/h 37 km/h 71 % 0 mm 380 W/m2
11:30 9.7 °C 4.5 °C 1017.2 hPa WNW 30.6 km/h 46.7 km/h 70 % 0 mm 260 W/m2
11:35 9.4 °C 4.2 °C 1017.2 hPa West 27.4 km/h 41.8 km/h 70 % 0 mm 230 W/m2
11:40 9.3 °C 4.3 °C 1017.5 hPa WNW 22.5 km/h 33.8 km/h 71 % 0 mm 264 W/m2
11:45 9.4 °C 4.4 °C 1017.5 hPa WNW 25.7 km/h 38.6 km/h 71 % 0 mm 397 W/m2
11:50 9.4 °C 4.2 °C 1017.5 hPa WNW 27.4 km/h 41.8 km/h 70 % 0 mm 95 W/m2
11:55 9.2 °C 4 °C 1017.5 hPa WNW 24.1 km/h 37 km/h 70 % 0 mm 346 W/m2
11:56 9.2 °C 4.2 °C 1017.5 hPa WNW 24.1 km/h 37 km/h 71 % 0 mm 364 W/m2
12:01 9.3 °C 4.3 °C 1017.5 hPa WNW 27.4 km/h 43.5 km/h 71 % 0 mm 369 W/m2
12:06 9.3 °C 4.5 °C 1017.5 hPa WNW 22.5 km/h 38.6 km/h 72 % 0 mm 355 W/m2
12:11 9.5 °C 4.5 °C 1017.5 hPa WNW 19.3 km/h 30.6 km/h 71 % 0 mm 374 W/m2
12:16 9.5 °C 4.5 °C 1017.2 hPa WNW 25.7 km/h 37 km/h 71 % 0 mm 125 W/m2
12:21 9.3 °C 4.5 °C 1017.5 hPa WNW 25.7 km/h 37 km/h 72 % 0 mm 299 W/m2
12:26 9.2 °C 5 °C 1017.8 hPa WNW 29 km/h 48.3 km/h 75 % 0 mm 158 W/m2
12:31 8.8 °C 5 °C 1017.5 hPa WNW 24.1 km/h 38.6 km/h 77 % 0 mm 253 W/m2
12:36 8.6 °C 4.4 °C 1017.5 hPa WNW 22.5 km/h 35.4 km/h 75 % 0 mm 155 W/m2
12:41 8.4 °C 4.4 °C 1017.5 hPa WNW 20.9 km/h 35.4 km/h 76 % 0 mm 158 W/m2
12:46 8.3 °C 4.3 °C 1017.5 hPa WNW 17.7 km/h 30.6 km/h 76 % 0 mm 158 W/m2
12:52 8.2 °C 4.2 °C 1017.5 hPa WNW 16.1 km/h 33.8 km/h 76 % 0 mm 139 W/m2
12:57 8.2 °C 4.1 °C 1017.5 hPa WNW 19.3 km/h 32.2 km/h 75 % 0 mm 134 W/m2
13:02 8.3 °C 4.1 °C 1017.5 hPa WNW 19.3 km/h 32.2 km/h 75 % 0 mm 313 W/m2
13:07 8.5 °C 4.3 °C 1017.5 hPa WNW 16.1 km/h 30.6 km/h 75 % 0 mm 299 W/m2
13:12 8.8 °C 4.4 °C 1017.5 hPa WNW 17.7 km/h 29 km/h 74 % 0 mm 327 W/m2
13:17 9.1 °C 4.5 °C 1017.5 hPa WNW 20.9 km/h 30.6 km/h 73 % 0 mm 149 W/m2
13:22 9.2 °C 4.6 °C 1017.5 hPa WNW 19.3 km/h 32.2 km/h 73 % 0 mm 381 W/m2
13:27 9.3 °C 4.7 °C 1017.5 hPa WNW 19.3 km/h 30.6 km/h 73 % 0 mm 186 W/m2
13:30 9.3 °C 4.7 °C 1017.5 hPa WNW 19.3 km/h 29 km/h 73 % 0 mm 216 W/m2
13:35 9.3 °C 5.4 °C 1017.5 hPa NW 14.5 km/h 24.1 km/h 77 % 0 mm 90 W/m2
13:40 9 °C 5.7 °C 1017.5 hPa NNW 12.9 km/h 19.3 km/h 80 % 0.25 mm 123 W/m2
13:45 8.7 °C 5.6 °C 1017.8 hPa NNW 14.5 km/h 30.6 km/h 81 % 0.25 mm 33 W/m2
13:50 8.2 °C 5.5 °C 1017.8 hPa NW 16.1 km/h 29 km/h 83 % 0.51 mm 33 W/m2
13:55 7.7 °C 5.2 °C 1018.2 hPa NW 16.1 km/h 29 km/h 84 % 0.51 mm 33 W/m2
14:00 7.2 °C 5 °C 1017.8 hPa WNW 14.5 km/h 29 km/h 86 % 0.51 mm 51 W/m2
14:05 7.1 °C 5.1 °C 1017.8 hPa WNW 16.1 km/h 24.1 km/h 87 % 0.51 mm 98 W/m2
14:10 7 °C 5.2 °C 1017.8 hPa WNW 19.3 km/h 33.8 km/h 88 % 0.51 mm 84 W/m2
14:15 6.9 °C 5.1 °C 1017.8 hPa WNW 20.9 km/h 40.2 km/h 88 % 0.51 mm 76 W/m2
14:20 6.9 °C 5.2 °C 1017.5 hPa WNW 16.1 km/h 24.1 km/h 89 % 0.51 mm 74 W/m2
14:25 7 °C 5.3 °C 1017.5 hPa WNW 17.7 km/h 29 km/h 89 % 0.51 mm 65 W/m2
14:30 7 °C 5.3 °C 1017.8 hPa West 17.7 km/h 33.8 km/h 89 % 0.51 mm 60 W/m2
14:35 7 °C 5.3 °C 1017.8 hPa West 17.7 km/h 30.6 km/h 89 % 0.51 mm 58 W/m2
14:40 7 °C 5.3 °C 1017.8 hPa West 16.1 km/h 24.1 km/h 89 % 0.51 mm 58 W/m2
14:45 7 °C 5.2 °C 1017.8 hPa WNW 19.3 km/h 32.2 km/h 88 % 0.51 mm 65 W/m2
14:50 7 °C 5.2 °C 1017.8 hPa WNW 14.5 km/h 25.7 km/h 88 % 0.25 mm 72 W/m2
14:55 7.1 °C 5.1 °C 1017.8 hPa WNW 17.7 km/h 24.1 km/h 87 % 0 mm 54 W/m2
15:00 7.1 °C 4.9 °C 1017.8 hPa WNW 20.9 km/h 29 km/h 86 % 0 mm 56 W/m2
15:05 7.1 °C 4.7 °C 1017.8 hPa WNW 20.9 km/h 33.8 km/h 85 % 0 mm 60 W/m2
15:10 7.1 °C 4.7 °C 1017.8 hPa WNW 17.7 km/h 30.6 km/h 85 % 0 mm 63 W/m2
15:16 7.1 °C 4.7 °C 1017.8 hPa West 16.1 km/h 22.5 km/h 85 % 0 mm 53 W/m2
15:21 7 °C 4.7 °C 1017.8 hPa West 14.5 km/h 25.7 km/h 85 % 0 mm 47 W/m2
15:26 6.9 °C 4.6 °C 1017.8 hPa West 11.3 km/h 22.5 km/h 85 % 0 mm 39 W/m2
15:31 6.9 °C 4.7 °C 1017.8 hPa West 9.7 km/h 16.1 km/h 86 % 0 mm 32 W/m2
15:36 6.9 °C 4.7 °C 1017.8 hPa WNW 9.7 km/h 19.3 km/h 86 % 0 mm 28 W/m2
15:41 6.8 °C 4.6 °C 1017.8 hPa West 14.5 km/h 22.5 km/h 86 % 0 mm 25 W/m2
15:46 6.8 °C 4.6 °C 1017.8 hPa WNW 9.7 km/h 17.7 km/h 86 % 0 mm 19 W/m2
15:51 6.8 °C 4.8 °C 1017.5 hPa WNW 9.7 km/h 19.3 km/h 87 % 0 mm 19 W/m2
15:56 6.9 °C 4.9 °C 1017.5 hPa WNW 12.9 km/h 17.7 km/h 87 % 0 mm 14 W/m2
16:01 6.9 °C 4.9 °C 1017.5 hPa WNW 12.9 km/h 20.9 km/h 87 % 0 mm 11 W/m2
16:06 6.9 °C 4.9 °C 1017.5 hPa WNW 14.5 km/h 22.5 km/h 87 % 0 mm 7 W/m2
16:11 7 °C 5 °C 1017.5 hPa WNW 14.5 km/h 20.9 km/h 87 % 0 mm 0 W/m2
16:16 7.1 °C 5.1 °C 1017.5 hPa WNW 16.1 km/h 24.1 km/h 87 % 0 mm 0 W/m2
16:21 7.2 °C 5 °C 1017.8 hPa WNW 19.3 km/h 25.7 km/h 86 % 0 mm 0 W/m2
16:26 7.2 °C 5 °C 1017.8 hPa NW 12.9 km/h 19.3 km/h 86 % 0 mm 0 W/m2
16:31 7.1 °C 4.9 °C 1017.8 hPa NW 12.9 km/h 25.7 km/h 86 % 0 mm 0 W/m2
16:36 7 °C 5 °C 1018.2 hPa NNW 14.5 km/h 22.5 km/h 87 % 0.25 mm 0 W/m2
16:41 6.9 °C 5.1 °C 1018.2 hPa NW 14.5 km/h 29 km/h 88 % 0.25 mm 0 W/m2
16:46 6.7 °C 4.8 °C 1017.8 hPa WNW 22.5 km/h 41.8 km/h 88 % 0.25 mm 0 W/m2
16:51 6.5 °C 4.7 °C 1017.8 hPa WNW 19.3 km/h 25.7 km/h 88 % 0.25 mm 0 W/m2
16:56 6.4 °C 4.7 °C 1017.8 hPa WNW 17.7 km/h 25.7 km/h 89 % 0.25 mm 0 W/m2
17:01 6.4 °C 4.7 °C 1017.5 hPa WNW 11.3 km/h 20.9 km/h 89 % 0.25 mm 0 W/m2
17:06 6.3 °C 4.6 °C 1017.5 hPa WNW 19.3 km/h 38.6 km/h 89 % 0.25 mm 0 W/m2
17:11 6.3 °C 4.6 °C 1017.5 hPa WNW 20.9 km/h 32.2 km/h 89 % 0.25 mm 0 W/m2
17:16 6.3 °C 4.4 °C 1017.5 hPa WNW 17.7 km/h 29 km/h 88 % 0.25 mm 0 W/m2
17:21 6.4 °C 4.6 °C 1017.5 hPa West 19.3 km/h 35.4 km/h 88 % 0.25 mm 0 W/m2
17:26 6.5 °C 4.5 °C 1017.5 hPa West 14.5 km/h 17.7 km/h 87 % 0.25 mm 0 W/m2
17:31 6.5 °C 4.5 °C 1017.5 hPa West 12.9 km/h 20.9 km/h 87 % 0.25 mm 0 W/m2
17:36 6.5 °C 4.7 °C 1017.2 hPa West 9.7 km/h 16.1 km/h 88 % 0 mm 0 W/m2
17:37 6.5 °C 4.7 °C 1017.2 hPa West 9.7 km/h 14.5 km/h 88 % 0 mm 0 W/m2
17:42 6.5 °C 4.7 °C 1017.2 hPa West 11.3 km/h 16.1 km/h 88 % 0 mm 0 W/m2
17:47 6.5 °C 4.7 °C 1017.2 hPa West 8 km/h 12.9 km/h 88 % 0 mm 0 W/m2
17:52 6.5 °C 4.7 °C 1017.2 hPa West 8 km/h 14.5 km/h 88 % 0 mm 0 W/m2
17:57 6.6 °C 4.8 °C 1017.2 hPa West 12.9 km/h 20.9 km/h 88 % 0 mm 0 W/m2
18:02 6.6 °C 4.8 °C 1016.8 hPa West 8 km/h 14.5 km/h 88 % 0 mm 0 W/m2
18:07 6.6 °C 4.8 °C 1017.2 hPa West 11.3 km/h 20.9 km/h 88 % 0 mm 0 W/m2
18:12 6.7 °C 4.8 °C 1017.2 hPa West 11.3 km/h 17.7 km/h 88 % 0 mm 0 W/m2
18:17 6.8 °C 4.8 °C 1017.2 hPa West 8 km/h 12.9 km/h 87 % 0 mm 0 W/m2
18:22 6.9 °C 4.9 °C 1016.8 hPa West 9.7 km/h 16.1 km/h 87 % 0 mm 0 W/m2
18:27 6.9 °C 4.7 °C 1016.8 hPa West 8 km/h 16.1 km/h 86 % 0 mm 0 W/m2
18:32 7 °C 4.8 °C 1017.2 hPa West 6.4 km/h 9.7 km/h 86 % 0 mm 0 W/m2
18:38 7 °C 4.8 °C 1016.8 hPa WNW 6.4 km/h 12.9 km/h 86 % 0 mm 0 W/m2
18:43 7 °C 4.8 °C 1016.8 hPa WNW 6.4 km/h 9.7 km/h 86 % 0 mm 0 W/m2
18:48 7 °C 4.8 °C 1016.8 hPa West 4.8 km/h 9.7 km/h 86 % 0 mm 0 W/m2
18:53 7 °C 4.8 °C 1017.2 hPa West 1.6 km/h 8 km/h 86 % 0 mm 0 W/m2
18:58 6.9 °C 4.7 °C 1016.8 hPa West 6.4 km/h 11.3 km/h 86 % 0 mm 0 W/m2
19:03 7 °C 4.8 °C 1017.2 hPa WNW 6.4 km/h 11.3 km/h 86 % 0 mm 0 W/m2
19:08 7.1 °C 5.1 °C 1017.2 hPa WNW 9.7 km/h 19.3 km/h 87 % 0 mm 0 W/m2
19:13 7.1 °C 5.1 °C 1017.2 hPa WNW 9.7 km/h 16.1 km/h 87 % 0 mm 0 W/m2
19:18 7.1 °C 5.1 °C 1016.8 hPa NW 6.4 km/h 14.5 km/h 87 % 0 mm 0 W/m2
19:23 7.1 °C 5.1 °C 1016.8 hPa WNW 8 km/h 17.7 km/h 87 % 0 mm 0 W/m2
19:28 7.1 °C 5.1 °C 1016.8 hPa WNW 8 km/h 11.3 km/h 87 % 0 mm 0 W/m2
19:33 7.1 °C 5.1 °C 1016.8 hPa WNW 8 km/h 11.3 km/h 87 % 0 mm 0 W/m2
19:38 7 °C 5.2 °C 1016.8 hPa WNW 6.4 km/h 9.7 km/h 88 % 0 mm 0 W/m2
19:43 7 °C 5.2 °C 1016.8 hPa West 4.8 km/h 8 km/h 88 % 0 mm 0 W/m2
19:48 6.9 °C 5.1 °C 1016.5 hPa West 3.2 km/h 6.4 km/h 88 % 0 mm 0 W/m2
19:53 6.9 °C 5.2 °C 1016.5 hPa WSW 8 km/h 12.9 km/h 89 % 0 mm 0 W/m2
19:58 6.9 °C 5.1 °C 1016.1 hPa West 11.3 km/h 20.9 km/h 88 % 0 mm 0 W/m2
20:03 6.9 °C 5.1 °C 1016.1 hPa West 12.9 km/h 20.9 km/h 88 % 0 mm 0 W/m2
20:08 7 °C 5 °C 1016.1 hPa West 8 km/h 12.9 km/h 87 % 0 mm 0 W/m2
20:13 7 °C 5 °C 1016.1 hPa West 9.7 km/h 14.5 km/h 87 % 0 mm 0 W/m2
20:18 7 °C 5 °C 1016.1 hPa West 11.3 km/h 14.5 km/h 87 % 0 mm 0 W/m2
20:23 7.1 °C 5.1 °C 1015.8 hPa West 9.7 km/h 17.7 km/h 87 % 0 mm 0 W/m2
20:28 7.1 °C 5.1 °C 1015.8 hPa West 11.3 km/h 17.7 km/h 87 % 0 mm 0 W/m2
20:34 7.2 °C 5.2 °C 1015.8 hPa West 12.9 km/h 17.7 km/h 87 % 0 mm 0 W/m2
20:38 7.2 °C 5.2 °C 1015.8 hPa West 11.3 km/h 17.7 km/h 87 % 0 mm 0 W/m2
20:43 7.2 °C 5.2 °C 1015.8 hPa West 12.9 km/h 17.7 km/h 87 % 0 mm 0 W/m2
20:48 7.3 °C 5.3 °C 1015.8 hPa West 14.5 km/h 20.9 km/h 87 % 0 mm 0 W/m2
20:54 7.3 °C 5.1 °C 1015.8 hPa West 14.5 km/h 20.9 km/h 86 % 0 mm 0 W/m2
20:59 7.3 °C 5.1 °C 1015.8 hPa West 14.5 km/h 20.9 km/h 86 % 0 mm 0 W/m2
21:04 7.3 °C 5.1 °C 1015.5 hPa West 17.7 km/h 25.7 km/h 86 % 0 mm 0 W/m2
21:09 7.4 °C 5.2 °C 1015.5 hPa West 14.5 km/h 25.7 km/h 86 % 0 mm 0 W/m2
21:14 7.4 °C 5.2 °C 1015.5 hPa West 12.9 km/h 22.5 km/h 86 % 0 mm 0 W/m2
21:19 7.3 °C 5.1 °C 1015.5 hPa West 12.9 km/h 20.9 km/h 86 % 0 mm 0 W/m2
21:24 7.3 °C 5.3 °C 1015.5 hPa West 11.3 km/h 19.3 km/h 87 % 0 mm 0 W/m2
21:29 7.3 °C 5.3 °C 1015.5 hPa West 9.7 km/h 17.7 km/h 87 % 0 mm 0 W/m2
21:34 7.2 °C 5.2 °C 1015.1 hPa West 12.9 km/h 20.9 km/h 87 % 0 mm 0 W/m2
21:39 7.2 °C 5.3 °C 1015.1 hPa West 12.9 km/h 19.3 km/h 88 % 0 mm 0 W/m2
21:44 7.2 °C 5.3 °C 1015.1 hPa West 14.5 km/h 20.9 km/h 88 % 0 mm 0 W/m2
21:49 7.3 °C 5.4 °C 1015.1 hPa West 12.9 km/h 20.9 km/h 88 % 0 mm 0 W/m2
21:54 7.3 °C 5.3 °C 1015.1 hPa WNW 16.1 km/h 29 km/h 87 % 0 mm 0 W/m2
21:59 7.3 °C 5.3 °C 1015.1 hPa West 11.3 km/h 17.7 km/h 87 % 0 mm 0 W/m2
22:04 7.3 °C 5.3 °C 1014.8 hPa West 14.5 km/h 20.9 km/h 87 % 0 mm 0 W/m2
22:09 7.3 °C 5.3 °C 1014.8 hPa West 12.9 km/h 24.1 km/h 87 % 0 mm 0 W/m2
22:14 7.4 °C 5.4 °C 1014.8 hPa West 16.1 km/h 22.5 km/h 87 % 0 mm 0 W/m2
22:19 7.4 °C 5.4 °C 1014.8 hPa West 17.7 km/h 25.7 km/h 87 % 0 mm 0 W/m2
22:24 7.4 °C 5.4 °C 1014.8 hPa West 16.1 km/h 30.6 km/h 87 % 0 mm 0 W/m2
22:29 7.4 °C 5.4 °C 1014.8 hPa West 16.1 km/h 24.1 km/h 87 % 0 mm 0 W/m2
22:34 7.4 °C 5.4 °C 1014.8 hPa West 12.9 km/h 19.3 km/h 87 % 0 mm 0 W/m2
22:39 7.4 °C 5.4 °C 1014.8 hPa West 12.9 km/h 19.3 km/h 87 % 0 mm 0 W/m2
22:44 7.4 °C 5.2 °C 1014.4 hPa West 12.9 km/h 17.7 km/h 86 % 0 mm 0 W/m2
22:49 7.4 °C 5.2 °C 1014.4 hPa West 14.5 km/h 22.5 km/h 86 % 0 mm 0 W/m2
22:54 7.5 °C 5.3 °C 1014.4 hPa West 12.9 km/h 20.9 km/h 86 % 0 mm 0 W/m2
22:59 7.5 °C 5.3 °C 1014.4 hPa West 9.7 km/h 16.1 km/h 86 % 0 mm 0 W/m2
23:04 7.5 °C 5.3 °C 1014.1 hPa West 11.3 km/h 14.5 km/h 86 % 0 mm 0 W/m2
23:09 7.4 °C 5.2 °C 1014.1 hPa West 9.7 km/h 14.5 km/h 86 % 0 mm 0 W/m2
23:14 7.4 °C 5.4 °C 1014.1 hPa West 11.3 km/h 17.7 km/h 87 % 0 mm 0 W/m2
23:19 7.4 °C 5.4 °C 1014.1 hPa West 12.9 km/h 20.9 km/h 87 % 0 mm 0 W/m2
23:24 7.4 °C 5.4 °C 1014.1 hPa West 14.5 km/h 19.3 km/h 87 % 0 mm 0 W/m2
23:29 7.4 °C 5.4 °C 1013.8 hPa West 14.5 km/h 22.5 km/h 87 % 0 mm 0 W/m2
23:34 7.4 °C 5.4 °C 1013.8 hPa West 12.9 km/h 20.9 km/h 87 % 0 mm 0 W/m2
23:36 7.4 °C 5.4 °C 1013.8 hPa West 11.3 km/h 14.5 km/h 87 % 0 mm 0 W/m2
23:41 7.4 °C 5.4 °C 1013.8 hPa West 16.1 km/h 22.5 km/h 87 % 0 mm 0 W/m2
23:46 7.4 °C 5.4 °C 1013.8 hPa West 12.9 km/h 20.9 km/h 87 % 0 mm 0 W/m2
23:51 7.4 °C 5.6 °C 1013.4 hPa West 14.5 km/h 20.9 km/h 88 % 0 mm 0 W/m2
23:56 7.4 °C 5.6 °C 1013.4 hPa West 11.3 km/h 16.1 km/h 88 % 0 mm 0 W/m2
Delerius-Weather
Compliments of Weather Underground - 2.25 mb

Data updates at regular intervals.